createdAt,value
2023-02-25T00:02:06.908Z,2.70
2023-02-25T00:04:49.061Z,2.00
2023-02-25T00:07:23.050Z,6.50
2023-02-25T00:09:56.754Z,3.00
2023-02-25T00:12:30.020Z,2.27
2023-02-25T00:15:01.138Z,2.60
2023-02-25T00:17:37.489Z,2.13
2023-02-25T00:20:17.993Z,2.27
2023-02-25T00:22:49.526Z,3.17
2023-02-25T00:25:20.887Z,2.33
2023-02-25T00:27:52.016Z,3.22
2023-02-25T00:30:27.749Z,2.03
2023-02-25T00:33:04.451Z,1.73
2023-02-25T00:35:49.762Z,1.90
2023-02-25T00:38:25.696Z,1.93
2023-02-25T00:43:50.248Z,1.53
2023-02-25T00:48:59.093Z,4.13
2023-02-25T00:51:31.159Z,3.17
2023-02-25T00:54:02.182Z,2.75
2023-02-25T00:56:33.202Z,2.40
2023-02-25T00:59:07.063Z,2.10
2023-02-25T01:01:39.743Z,2.57
2023-02-25T01:04:20.156Z,2.97
2023-02-25T01:06:57.736Z,2.10
2023-02-25T01:09:31.158Z,2.33
2023-02-25T01:12:01.629Z,2.47
2023-02-25T01:14:51.686Z,2.33
2023-02-25T01:17:25.523Z,1.87
2023-02-25T01:22:43.382Z,2.10
2023-02-25T01:25:25.740Z,2.13
2023-02-25T01:28:01.054Z,1.60
2023-02-25T01:30:39.976Z,1.70
2023-02-25T01:33:16.883Z,1.70
2023-02-25T01:38:30.717Z,1.97
2023-02-25T01:41:01.733Z,2.17
2023-02-25T01:43:34.998Z,1.27
2023-02-25T01:48:45.027Z,2.57
2023-02-25T01:51:21.658Z,2.37
2023-02-25T01:53:51.544Z,2.83
2023-02-25T01:56:26.385Z,2.20
2023-02-25T01:58:56.999Z,2.13
2023-02-25T02:01:38.962Z,2.22
2023-02-25T02:04:18.175Z,1.27
2023-02-25T02:06:55.683Z,2.70
2023-02-25T02:09:30.458Z,2.00
2023-02-25T02:12:02.408Z,2.00
2023-02-25T02:14:37.686Z,2.07
2023-02-25T02:17:46.843Z,1.20
2023-02-25T02:20:26.814Z,1.60
2023-02-25T02:23:38.581Z,1.50
2023-02-25T02:26:49.745Z,2.00
2023-02-25T02:29:58.758Z,1.73
2023-02-25T02:33:08.462Z,1.30
2023-02-25T02:35:49.985Z,1.30
2023-02-25T02:38:39.722Z,1.33
2023-02-25T02:41:30.188Z,1.90
2023-02-25T02:44:16.200Z,2.17
2023-02-25T02:46:58.691Z,1.23
2023-02-25T02:49:59.642Z,1.77
2023-02-25T02:52:32.798Z,1.67
2023-02-25T02:55:24.623Z,1.60
2023-02-25T02:58:21.490Z,2.40
2023-02-25T03:00:58.848Z,2.60
2023-02-25T03:03:46.977Z,2.07
2023-02-25T03:06:29.375Z,1.77
2023-02-25T03:09:22.723Z,1.30
2023-02-25T03:11:55.365Z,1.47
2023-02-25T03:14:29.142Z,1.80
2023-02-25T03:17:20.700Z,1.87
2023-02-25T03:20:02.611Z,1.58
2023-02-25T03:22:44.677Z,1.60
2023-02-25T03:25:56.095Z,2.37
2023-02-25T03:28:38.410Z,2.33
2023-02-25T03:31:33.036Z,2.13
2023-02-25T03:34:14.999Z,1.67
2023-02-25T03:36:56.726Z,1.52
2023-02-25T03:39:43.435Z,1.70
2023-02-25T03:42:19.543Z,1.17
2023-02-25T03:44:58.850Z,2.30
2023-02-25T03:47:29.292Z,1.60
2023-02-25T03:50:29.574Z,1.50
2023-02-25T03:53:04.827Z,1.33
2023-02-25T03:55:56.565Z,1.73
2023-02-25T03:58:25.761Z,2.30
2023-02-25T04:01:05.291Z,1.53
2023-02-25T04:03:42.135Z,1.80
2023-02-25T04:06:21.291Z,1.63
2023-02-25T04:11:44.285Z,1.63
2023-02-25T04:14:15.887Z,1.80
2023-02-25T04:16:49.819Z,1.00
2023-02-25T04:19:19.577Z,1.60
2023-02-25T04:21:58.251Z,1.20
2023-02-25T04:24:28.584Z,1.83
2023-02-25T04:27:05.306Z,2.47
2023-02-25T04:29:35.938Z,1.80
2023-02-25T04:32:08.722Z,1.83
2023-02-25T04:34:43.030Z,1.40
2023-02-25T04:37:13.909Z,3.97
2023-02-25T04:39:46.909Z,1.97
2023-02-25T04:42:31.653Z,1.50
2023-02-25T04:45:05.154Z,1.63
2023-02-25T04:47:45.924Z,1.40
2023-02-25T04:50:22.086Z,1.40
2023-02-25T04:53:02.637Z,1.97
2023-02-25T04:55:36.718Z,2.83
2023-02-25T04:58:07.929Z,1.73
2023-02-25T05:00:40.841Z,1.58
2023-02-25T05:03:25.826Z,2.07
2023-02-25T05:05:54.988Z,1.03
2023-02-25T05:08:26.186Z,1.50
2023-02-25T05:11:03.490Z,1.60
2023-02-25T05:13:34.438Z,1.70
2023-02-25T05:16:21.944Z,1.35
2023-02-25T05:18:53.190Z,1.90
2023-02-25T05:21:29.659Z,1.65
2023-02-25T05:24:03.703Z,2.07
2023-02-25T05:26:49.104Z,2.13
2023-02-25T05:29:32.314Z,1.80
2023-02-25T05:32:03.278Z,2.20
2023-02-25T05:34:32.558Z,1.10
2023-02-25T05:37:11.438Z,2.03
2023-02-25T05:39:45.174Z,2.60
2023-02-25T05:42:22.619Z,1.10
2023-02-25T05:44:51.928Z,1.40
2023-02-25T05:47:22.988Z,2.33
2023-02-25T05:49:54.603Z,1.55
2023-02-25T05:52:27.466Z,1.70
2023-02-25T05:55:03.992Z,1.87
2023-02-25T05:57:34.504Z,1.90
2023-02-25T06:00:17.407Z,1.60
2023-02-25T06:02:48.314Z,2.03
2023-02-25T06:05:18.857Z,2.77
2023-02-25T06:07:59.677Z,2.90
2023-02-25T06:10:44.245Z,2.57
2023-02-25T06:13:18.130Z,2.33
2023-02-25T06:15:54.395Z,1.83
2023-02-25T06:18:27.579Z,2.43
2023-02-25T06:20:58.764Z,2.33
2023-02-25T06:23:28.835Z,2.22
2023-02-25T06:26:09.003Z,2.83
2023-02-25T06:28:40.606Z,2.77
2023-02-25T06:31:12.518Z,2.67
2023-02-25T06:33:57.760Z,2.08
2023-02-25T06:36:34.717Z,2.90
2023-02-25T06:39:17.855Z,2.67
2023-02-25T06:41:52.119Z,3.00
2023-02-25T06:44:20.487Z,2.57
2023-02-25T06:46:58.081Z,2.50
2023-02-25T06:49:26.683Z,2.60
2023-02-25T06:52:00.266Z,2.13
2023-02-25T06:54:31.317Z,2.80
2023-02-25T06:57:11.868Z,2.17
2023-02-25T06:59:43.386Z,3.70
2023-02-25T07:02:24.257Z,2.13
2023-02-25T07:05:01.431Z,2.00
2023-02-25T07:07:51.327Z,2.17
2023-02-25T07:10:37.466Z,3.83
2023-02-25T07:13:08.440Z,3.60
2023-02-25T07:15:39.224Z,1.88
2023-02-25T07:18:12.730Z,2.57
2023-02-25T07:20:47.481Z,2.33
2023-02-25T07:23:19.157Z,2.37
2023-02-25T07:25:50.328Z,2.97
2023-02-25T07:28:26.113Z,2.27
2023-02-25T07:31:00.599Z,4.23
2023-02-25T07:33:32.592Z,2.53
2023-02-25T07:36:01.607Z,2.70
2023-02-25T07:38:29.841Z,2.23
2023-02-25T07:41:05.515Z,1.77
2023-02-25T07:43:36.857Z,1.73
2023-02-25T07:46:08.431Z,4.38
2023-02-25T07:48:41.022Z,2.65
2023-02-25T07:51:22.339Z,3.13
2023-02-25T07:53:55.150Z,2.42
2023-02-25T07:56:34.329Z,1.23
2023-02-25T07:59:04.501Z,1.60
2023-02-25T08:01:51.296Z,5.53
2023-02-25T08:04:20.895Z,3.60
2023-02-25T08:06:57.967Z,2.20
2023-02-25T08:09:30.090Z,2.60
2023-02-25T08:12:00.515Z,2.47
2023-02-25T08:14:31.957Z,3.97
2023-02-25T08:17:09.604Z,1.98
2023-02-25T08:19:45.179Z,2.20
2023-02-25T08:22:19.316Z,2.87
2023-02-25T08:24:53.092Z,3.03
2023-02-25T08:27:24.002Z,3.33
2023-02-25T08:29:58.120Z,2.40
2023-02-25T08:32:30.228Z,2.00
2023-02-25T08:35:01.379Z,3.33
2023-02-25T08:37:33.350Z,2.80
2023-02-25T08:40:10.698Z,2.80
2023-02-25T08:42:47.047Z,2.73
2023-02-25T08:45:20.869Z,4.03
2023-02-25T08:47:58.235Z,2.73
2023-02-25T08:50:34.157Z,2.63
2023-02-25T08:53:11.573Z,3.50
2023-02-25T08:55:51.295Z,3.63
2023-02-25T09:01:13.243Z,3.03
2023-02-25T09:03:56.319Z,3.87
2023-02-25T09:06:38.941Z,4.00
2023-02-25T09:09:09.600Z,3.37
2023-02-25T09:11:41.124Z,3.20
2023-02-25T09:14:10.078Z,3.22
2023-02-25T09:16:48.199Z,4.47
2023-02-25T09:19:19.122Z,3.53
2023-02-25T09:22:01.736Z,4.53
2023-02-25T09:24:32.885Z,2.97
2023-02-25T09:27:07.508Z,2.50
2023-02-25T09:29:38.972Z,3.27
2023-02-25T09:32:20.132Z,2.55
2023-02-25T09:35:10.868Z,3.73
2023-02-25T09:37:44.326Z,3.63
2023-02-25T09:43:32.709Z,3.17
2023-02-25T09:46:18.852Z,2.93
2023-02-25T09:49:04.362Z,2.40
2023-02-25T09:51:59.253Z,3.00
2023-02-25T09:55:31.207Z,3.93
2023-02-25T09:58:31.947Z,3.20
2023-02-25T10:01:36.624Z,2.90
2023-02-25T10:04:41.085Z,2.20
2023-02-25T10:07:27.737Z,2.83
2023-02-25T10:10:31.797Z,3.43
2023-02-25T10:13:13.568Z,3.97
2023-02-25T10:16:05.775Z,3.00
2023-02-25T10:19:04.375Z,3.10
2023-02-25T10:22:13.402Z,2.13
2023-02-25T10:24:52.280Z,3.30
2023-02-25T10:27:47.128Z,2.93
2023-02-25T10:30:34.059Z,2.50
2023-02-25T10:33:18.348Z,2.80
2023-02-25T10:35:49.882Z,3.30
2023-02-25T10:38:20.629Z,3.42
2023-02-25T10:40:54.514Z,3.10
2023-02-25T10:43:32.801Z,1.87
2023-02-25T10:46:44.313Z,3.67
2023-02-25T10:49:39.077Z,3.87
2023-02-25T10:52:20.739Z,2.63
2023-02-25T10:54:57.655Z,3.55
2023-02-25T10:57:45.117Z,3.97
2023-02-25T11:00:44.337Z,3.83
2023-02-25T11:03:27.989Z,3.57
2023-02-25T11:06:14.708Z,3.47
2023-02-25T11:08:48.842Z,3.50
2023-02-25T11:11:32.469Z,2.30
2023-02-25T11:14:23.169Z,2.87
2023-02-25T11:16:56.880Z,2.80
2023-02-25T11:19:38.000Z,3.33
2023-02-25T11:22:20.470Z,2.78
2023-02-25T11:25:02.670Z,1.87
2023-02-25T11:27:45.128Z,2.60
2023-02-25T11:30:25.245Z,3.27
2023-02-25T11:33:03.314Z,2.60
2023-02-25T11:35:41.549Z,3.70
2023-02-25T11:38:38.017Z,1.93
2023-02-25T11:41:29.592Z,2.93
2023-02-25T11:44:02.543Z,3.28
2023-02-25T11:46:36.554Z,3.93
2023-02-25T11:49:29.238Z,2.60
2023-02-25T11:52:21.511Z,3.47
2023-02-25T11:55:13.627Z,2.97
2023-02-25T12:01:07.139Z,2.37
2023-02-25T12:04:16.537Z,3.27
2023-02-25T12:10:49.849Z,5.88
2023-02-25T12:13:58.737Z,2.60
2023-02-25T12:17:17.896Z,2.20
2023-02-25T12:20:16.785Z,3.47
2023-02-25T12:23:47.409Z,4.17
2023-02-25T12:26:26.069Z,4.13
2023-02-25T12:29:40.837Z,3.77
2023-02-25T12:32:54.348Z,2.60
2023-02-25T12:35:52.392Z,2.17
2023-02-25T12:39:08.638Z,2.70
2023-02-25T12:42:16.144Z,3.00
2023-02-25T12:45:26.149Z,2.67
2023-02-25T12:48:01.124Z,2.40
2023-02-25T12:54:30.934Z,2.13
2023-02-25T12:57:46.632Z,2.50
2023-02-25T13:01:01.564Z,2.43
2023-02-25T13:03:40.443Z,2.37
2023-02-25T13:07:01.573Z,2.83
2023-02-25T13:10:30.026Z,3.60
2023-02-25T13:13:21.264Z,2.43
2023-02-25T13:16:32.197Z,2.13
2023-02-25T13:19:14.532Z,2.33
2023-02-25T13:25:07.013Z,3.13
2023-02-25T13:28:10.157Z,2.75
2023-02-25T13:31:04.425Z,2.20
2023-02-25T13:34:14.921Z,2.37
2023-02-25T13:37:19.476Z,2.70
2023-02-25T13:40:27.198Z,2.27
2023-02-25T13:43:43.610Z,2.23
2023-02-25T13:47:00.127Z,1.93
2023-02-25T13:53:07.662Z,3.23
2023-02-25T13:56:18.039Z,2.63
2023-02-25T13:59:36.386Z,1.90
2023-02-25T14:02:44.957Z,1.90
2023-02-25T14:06:08.248Z,1.90
2023-02-25T14:08:57.219Z,2.63
2023-02-25T14:12:14.494Z,2.30
2023-02-25T14:15:15.954Z,2.57
2023-02-25T14:18:16.042Z,4.90
2023-02-25T14:21:08.030Z,4.53
2023-02-25T14:23:43.497Z,4.05
2023-02-25T14:26:39.492Z,3.63
2023-02-25T14:29:48.545Z,2.33
2023-02-25T14:32:43.753Z,2.10
2023-02-25T14:35:53.786Z,3.50
2023-02-25T14:38:56.018Z,3.47
2023-02-25T14:42:07.678Z,2.88
2023-02-25T14:44:57.276Z,2.55
2023-02-25T14:47:52.848Z,2.43
2023-02-25T14:51:13.326Z,4.60
2023-02-25T14:54:18.983Z,2.60
2023-02-25T14:56:57.302Z,2.40
2023-02-25T14:59:50.078Z,2.53
2023-02-25T15:02:48.869Z,4.60
2023-02-25T15:05:54.909Z,2.80
2023-02-25T15:08:55.939Z,1.80
2023-02-25T15:11:48.370Z,5.53
2023-02-25T15:14:52.549Z,5.93
2023-02-25T15:18:01.807Z,3.07
2023-02-25T15:20:48.646Z,7.10
2023-02-25T15:23:30.831Z,3.17
2023-02-25T15:26:33.976Z,3.67
2023-02-25T15:29:11.127Z,4.13
2023-02-25T15:31:42.988Z,5.20
2023-02-25T15:34:36.577Z,16.20
2023-02-25T15:37:40.522Z,3.40
2023-02-25T15:40:25.269Z,14.33
2023-02-25T15:43:08.341Z,4.43
2023-02-25T15:45:45.804Z,5.67
2023-02-25T15:48:25.818Z,5.80
2023-02-25T15:51:01.964Z,4.57
2023-02-25T15:53:48.504Z,3.13
2023-02-25T15:56:24.783Z,3.37
2023-02-25T15:59:10.634Z,3.60
2023-02-25T16:01:45.914Z,5.20
2023-02-25T16:04:44.885Z,5.47
2023-02-25T16:07:17.143Z,4.57
2023-02-25T16:10:08.360Z,3.30
2023-02-25T16:12:43.732Z,10.43
2023-02-25T16:15:56.441Z,4.00
2023-02-25T16:18:48.506Z,3.50
2023-02-25T16:21:47.424Z,5.70
2023-02-25T16:24:20.277Z,4.00
2023-02-25T16:27:09.682Z,2.53
2023-02-25T16:30:05.575Z,5.20
2023-02-25T16:33:15.868Z,3.33
2023-02-25T16:36:24.643Z,3.03
2023-02-25T16:39:30.058Z,3.00
2023-02-25T16:42:10.596Z,2.23
2023-02-25T16:44:41.449Z,4.87
2023-02-25T16:47:32.974Z,3.77
2023-02-25T16:50:11.072Z,2.40
2023-02-25T16:52:50.406Z,2.37
2023-02-25T16:55:37.525Z,3.23
2023-02-25T16:58:27.912Z,2.63
2023-02-25T17:01:04.358Z,2.60
2023-02-25T17:03:45.956Z,4.53
2023-02-25T17:06:23.735Z,4.73
2023-02-25T17:08:56.475Z,4.73
2023-02-25T17:11:55.750Z,4.45
2023-02-25T17:14:27.572Z,3.33
2023-02-25T17:19:30.261Z,2.87
2023-02-25T17:22:07.822Z,4.27
2023-02-25T17:24:44.830Z,3.80
2023-02-25T17:27:19.762Z,4.33
2023-02-25T17:29:55.906Z,3.23
2023-02-25T17:32:38.376Z,2.60
2023-02-25T17:35:14.905Z,4.03
2023-02-25T17:37:54.994Z,2.03
2023-02-25T17:40:30.348Z,3.07
2023-02-25T17:43:25.266Z,1.53
2023-02-25T17:46:10.445Z,2.57
2023-02-25T17:48:45.903Z,2.40
2023-02-25T17:51:17.050Z,2.27
2023-02-25T17:54:03.294Z,1.13
2023-02-25T17:56:41.137Z,2.23
2023-02-25T18:02:33.656Z,2.07
2023-02-25T18:05:22.442Z,1.63
2023-02-25T18:08:12.372Z,1.30
2023-02-25T18:10:57.863Z,1.30
2023-02-25T18:13:38.467Z,1.00
2023-02-25T18:16:27.771Z,1.00
2023-02-25T18:19:01.980Z,1.33
2023-02-25T18:21:32.292Z,0.90
2023-02-25T18:24:04.928Z,1.27
2023-02-25T18:26:39.842Z,0.80
2023-02-25T18:29:22.304Z,1.93
2023-02-25T18:31:55.841Z,1.50
2023-02-25T18:34:38.845Z,0.60
2023-02-25T18:37:21.211Z,1.70
2023-02-25T18:40:00.608Z,0.80
2023-02-25T18:42:34.108Z,1.00
2023-02-25T18:45:19.238Z,0.77
2023-02-25T18:47:56.117Z,0.40
2023-02-25T18:50:30.663Z,0.60
2023-02-25T18:53:07.789Z,0.57
2023-02-25T18:55:47.770Z,0.30
2023-02-25T18:58:29.794Z,0.53
2023-02-25T19:03:47.782Z,0.20
2023-02-25T19:06:18.205Z,1.13
2023-02-25T19:08:50.670Z,0.67
2023-02-25T19:11:26.368Z,0.30
2023-02-25T19:13:57.404Z,0.60
2023-02-25T19:16:35.905Z,0.30
2023-02-25T19:19:08.136Z,0.20
2023-02-25T19:21:44.900Z,0.00
2023-02-25T19:24:25.766Z,0.23
2023-02-25T19:26:59.263Z,0.53
2023-02-25T19:29:33.603Z,0.20
2023-02-25T19:32:06.586Z,0.20
2023-02-25T19:34:40.444Z,0.37
2023-02-25T19:37:11.157Z,0.13
2023-02-25T19:39:49.891Z,0.47
2023-02-25T19:45:08.624Z,0.00
2023-02-25T19:47:39.351Z,0.07
2023-02-25T19:50:19.836Z,0.00
2023-02-25T19:52:52.816Z,0.10
2023-02-25T19:55:23.752Z,0.30
2023-02-25T19:57:55.102Z,0.10
2023-02-25T20:00:32.477Z,0.40
2023-02-25T20:03:05.880Z,0.27
2023-02-25T20:05:36.155Z,1.10
2023-02-25T20:08:04.066Z,0.30
2023-02-25T20:10:44.382Z,0.20
2023-02-25T20:13:20.649Z,0.17
2023-02-25T20:15:52.933Z,0.30
2023-02-25T20:18:21.028Z,0.60
2023-02-25T20:20:58.336Z,0.10
2023-02-25T20:23:57.438Z,0.10
2023-02-25T20:26:31.599Z,0.00
2023-02-25T20:29:14.254Z,0.53
2023-02-25T20:31:49.570Z,0.10
2023-02-25T20:34:26.373Z,0.30
2023-02-25T20:37:21.460Z,0.10
2023-02-25T20:40:10.869Z,0.00
2023-02-25T20:42:44.994Z,0.10
2023-02-25T20:45:17.161Z,0.10
2023-02-25T20:47:45.307Z,0.10
2023-02-25T20:50:24.169Z,0.57
2023-02-25T20:52:56.518Z,0.20
2023-02-25T20:55:38.784Z,0.20
2023-02-25T20:58:23.528Z,0.50
2023-02-25T21:00:53.708Z,0.33
2023-02-25T21:03:24.892Z,1.37
2023-02-25T21:08:49.696Z,0.00
2023-02-25T21:11:20.206Z,0.00
2023-02-25T21:14:02.146Z,0.20
2023-02-25T21:16:35.747Z,0.32
2023-02-25T21:19:12.735Z,0.00
2023-02-25T21:21:43.568Z,0.00
2023-02-25T21:24:18.327Z,0.00
2023-02-25T21:26:48.061Z,0.23
2023-02-25T21:29:27.072Z,0.00
2023-02-25T21:31:57.310Z,0.93
2023-02-25T21:34:26.210Z,0.00
2023-02-25T21:37:01.048Z,0.00
2023-02-25T21:39:32.752Z,0.27
2023-02-25T21:42:03.725Z,0.17
2023-02-25T21:44:36.588Z,0.20
2023-02-25T21:47:09.826Z,0.30
2023-02-25T21:49:41.116Z,0.20
2023-02-25T21:52:18.533Z,0.40
2023-02-25T21:54:58.223Z,0.10
2023-02-25T21:57:35.709Z,0.17
2023-02-25T22:00:04.128Z,0.00
2023-02-25T22:02:55.609Z,0.30
2023-02-25T22:05:27.093Z,0.17
2023-02-25T22:08:04.541Z,0.68
2023-02-25T22:10:37.255Z,0.27
2023-02-25T22:13:17.823Z,0.30
2023-02-25T22:15:51.857Z,0.10
2023-02-25T22:18:24.564Z,0.00
2023-02-25T22:20:56.915Z,0.10
2023-02-25T22:23:27.831Z,0.37
2023-02-25T22:25:59.490Z,0.10
2023-02-25T22:28:27.901Z,0.00
2023-02-25T22:31:01.465Z,0.40
2023-02-25T22:33:46.763Z,0.30
2023-02-25T22:36:20.973Z,0.17
2023-02-25T22:38:53.245Z,0.37
2023-02-25T22:44:04.605Z,0.40
2023-02-25T22:46:51.320Z,0.10
2023-02-25T22:49:20.478Z,0.43
2023-02-25T22:51:57.777Z,0.10
2023-02-25T22:54:30.462Z,0.10
2023-02-25T22:57:05.682Z,0.00
2023-02-25T22:59:52.340Z,0.10
2023-02-25T23:02:26.403Z,0.10
2023-02-25T23:05:02.210Z,0.30
2023-02-25T23:07:37.709Z,0.37
2023-02-25T23:10:11.797Z,0.80
2023-02-25T23:12:42.741Z,0.37
2023-02-25T23:15:18.544Z,0.30
2023-02-25T23:17:58.533Z,0.43
2023-02-25T23:20:39.359Z,0.10
2023-02-25T23:23:10.033Z,0.10
2023-02-25T23:25:53.209Z,0.10
2023-02-25T23:28:23.294Z,0.40
2023-02-25T23:30:54.769Z,0.30
2023-02-25T23:33:29.618Z,0.08
2023-02-25T23:36:08.125Z,0.30
2023-02-25T23:38:39.535Z,0.50
2023-02-25T23:41:10.946Z,0.45
2023-02-25T23:43:43.701Z,0.70
2023-02-25T23:46:14.309Z,0.47
2023-02-25T23:48:46.375Z,0.40
2023-02-25T23:51:16.864Z,0.57
2023-02-25T23:53:48.411Z,0.73
2023-02-25T23:56:18.522Z,0.80
2023-02-25T23:58:52.676Z,1.10
